Data for 04/03/2010

Time Sea-Level Adjusted Pressure Absolute Pressure Temperature Relative Humidity Dew Point   
(mb) (inHg) (mb) (inHg) (C) (F) (%) (C) (F)
00:05 1003 29.62 832 24.57 2.2 36 52 -6.7 19.9
00:10 1003 29.62 832 24.57 2 35.7 52 -6.8 19.8
00:15 1003 29.62 832 24.57 2 35.5 53 -6.7 19.9
00:20 1003 29.62 832 24.57 1.9 35.4 52 -6.9 19.5
00:25 1003 29.62 832 24.57 1.9 35.4 53 -6.7 19.9
00:30 1003 29.62 832 24.57 2 35.6 53 -6.6 20
00:35 1003 29.62 832 24.57 1.9 35.4 54 -6.5 20.3
00:40 1003 29.62 832 24.57 1.8 35.3 54 -6.4 20.4
00:45 1003 29.62 832 24.57 1.8 35.2 57 -5.9 21.3
00:50 1003 29.62 832 24.57 1.6 35 60 -5.3 22.4
00:55 1003 29.62 832 24.57 1.5 34.7 62 -5 22.9
01:00 1003 29.62 832 24.57 1.3 34.3 65 -4.5 24
01:05 1003 29.62 832 24.57 0.9 33.5 73 -3.5 25.6
01:10 1003 29.62 832 24.57 0.4 32.7 79 -2.9 26.7
01:15 1003 29.62 832 24.57 -0 31.9 83 -2.5 27.4
01:20 1003 29.62 832 24.57 -0.3 31.4 87 -2.3 27.9
01:25 1003 29.62 832 24.57 -0.6 31 89 -2.2 28
01:30 1003 29.62 832 24.57 -0.8 30.6 91 -2.1 28.2
01:35 1003 29.62 832 24.57 -0.9 30.4 92 -2.1 28.3
01:40 1003 29.62 832 24.57 -1 30.3 93 -1.9 28.5
01:45 1003 29.62 832 24.57 -1.1 30.1 94 -1.9 28.5
01:50 1003 29.62 832 24.57 -1.1 30 94 -1.9 28.6
01:55 1003 29.62 832 24.57 -1.1 30 95 -1.9 28.6
02:00 1003 29.62 832 24.57 -1.2 29.9 95 -1.8 28.7
02:05 1003 29.62 832 24.57 -1.2 29.8 95 -1.9 28.6
02:10 1003 29.62 832 24.57 -1.2 29.8 95 -1.9 28.6
02:15 1003 29.62 832 24.57 -1.2 29.8 96 -1.8 28.7
02:20 1003 29.62 832 24.57 -1.3 29.7 96 -1.8 28.7
02:25 1003 29.62 832 24.57 -1.2 29.8 96 -1.8 28.8
02:30 1003 29.62 832 24.57 -1.3 29.7 96 -1.8 28.8
02:35 1003 29.62 832 24.57 -1.3 29.6 96 -1.8 28.7
02:40 1003 29.62 832 24.57 -1.4 29.6 96 -1.9 28.6
02:45 1003 29.62 832 24.57 -1.4 29.5 96 -1.9 28.5
02:50 1003 29.62 832 24.57 -1.4 29.5 96 -2 28.4
02:55 1003 29.62 832 24.57 -1.4 29.5 95 -2 28.4
03:00 1003 29.62 832 24.57 -1.3 29.7 94 -2.1 28.2
03:05 1003 29.62 832 24.57 -1.3 29.7 94 -2.2 28.1
03:10 1002 29.59 832 24.57 -1.2 29.8 93 -2.3 27.9
03:15 1002 29.59 832 24.57 -1.1 30 91 -2.5 27.5
03:20 1002 29.59 832 24.57 -1.1 30.1 89 -2.6 27.4
03:25 1002 29.59 832 24.57 -1 30.2 88 -2.7 27.2
03:30 1002 29.59 832 24.57 -0.9 30.4 88 -2.7 27.1
03:35 1002 29.59 832 24.57 -0.8 30.5 86 -2.9 26.8
03:40 1002 29.59 832 24.57 -0.7 30.7 86 -2.8 27
03:45 1003 29.62 832 24.57 -0.6 31 85 -2.7 27.1
03:50 1003 29.62 832 24.57 -0.4 31.2 84 -2.8 26.9
03:55 1002 29.59 832 24.57 -0.4 31.3 85 -2.7 27.1
04:00 1003 29.62 832 24.57 -0.5 31.1 88 -2.3 27.9
04:05 1003 29.62 832 24.57 -0.7 30.8 89 -2.2 28
04:10 1003 29.62 832 24.57 -0.6 30.9 89 -2.2 28.1
04:15 1003 29.62 832 24.57 -0.6 31 90 -2.1 28.3
04:20 1003 29.62 832 24.57 -0.8 30.5 91 -2.1 28.2
04:25 1003 29.62 832 24.57 -0.9 30.3 91 -2.2 28
04:30 1003 29.62 832 24.57 -0.7 30.8 90 -2.1 28.3
04:35 1003 29.62 832 24.57 -0.4 31.3 88 -2.1 28.3
04:40 1003 29.62 832 24.57 -0.5 31.2 91 -1.8 28.7
04:45 1003 29.62 832 24.57 -0.5 31 91 -1.9 28.6
04:50 1003 29.62 832 24.57 -0.6 30.9 91 -1.9 28.5
04:55 1003 29.62 832 24.57 -0.9 30.3 93 -2 28.4
05:00 1003 29.62 832 24.57 -1.2 29.8 94 -2 28.4
05:05 1003 29.62 832 24.57 -1.3 29.6 95 -2 28.4
05:10 1003 29.62 832 24.57 -1.4 29.5 96 -1.9 28.5
05:15 1003 29.62 832 24.57 -1.3 29.7 96 -1.9 28.7
05:20 1003 29.62 832 24.57 -1.4 29.4 96 -1.9 28.5
05:25 1003 29.62 832 24.57 -1.4 29.4 97 -1.9 28.6
05:30 1003 29.62 832 24.57 -1.3 29.6 97 -1.7 28.9
05:35 1003 29.62 832 24.57 -1.2 29.8 97 -1.7 28.9
05:40 1003 29.62 832 24.57 -1.3 29.6 97 -1.8 28.8
05:45 1003 29.62 832 24.57 -1.3 29.6 97 -1.8 28.8
05:50 1003 29.62 832 24.57 -1.3 29.7 97 -1.7 29
05:55 1003 29.62 832 24.57 -1.3 29.7 97 -1.7 29
06:00 1003 29.62 832 24.57 -1.3 29.7 97 -1.7 28.9
06:05 1003 29.62 832 24.57 -1.3 29.7 97 -1.7 28.9
06:10 1003 29.62 832 24.57 -1.3 29.7 97 -1.7 28.9
06:15 1003 29.62 832 24.57 -1.3 29.7 97 -1.7 28.9
06:20 1003 29.62 832 24.57 -1.2 29.8 97 -1.6 29.1
06:25 1003 29.62 832 24.57 -1 30.1 97 -1.5 29.4
06:30 1003 29.62 832 24.57 -0.9 30.3 97 -1.4 29.5
06:35 1003 29.62 832 24.57 -1 30.3 96 -1.5 29.4
06:40 1003 29.62 832 24.57 -1 30.1 96 -1.5 29.2
06:45 1003 29.62 832 24.57 -1 30.2 96 -1.5 29.3
06:50 1003 29.62 832 24.57 -1 30.2 96 -1.5 29.3
06:55 1003 29.62 832 24.57 -1 30.2 96 -1.5 29.2
07:00 1003 29.62 832 24.57 -1 30.3 96 -1.5 29.3
07:05 1003 29.62 832 24.57 -1.3 29.6 93 -2.3 27.9
07:10 1003 29.62 832 24.57 -2.1 28.3 94 -2.8 26.9
07:15 1003 29.62 832 24.57 -2.3 27.8 96 -2.9 26.8
07:20 1003 29.62 833 24.6 -2.4 27.7 96 -3 26.6
07:25 1004 29.65 833 24.6 -2.6 27.3 96 -3.2 26.3
07:30 1004 29.65 833 24.6 -2.7 27.2 97 -3.1 26.3
07:35 1004 29.65 833 24.6 -2.6 27.3 97 -3.1 26.5
07:40 1004 29.65 833 24.6 -2.6 27.3 97 -3 26.5
07:45 1004 29.65 833 24.6 -2.6 27.3 96 -3.1 26.4
07:50 1004 29.65 833 24.6 -2.7 27.2 97 -3.1 26.3
07:55 1004 29.65 834 24.63 -2.6 27.2 97 -3.1 26.4
08:00 1004 29.65 834 24.63 -2.6 27.3 97 -3.1 26.4
08:05 1005 29.68 834 24.63 -2.6 27.3 96 -3.1 26.4
08:10 1005 29.68 834 24.63 -2.7 27.1 97 -3.2 26.3
08:15 1005 29.68 834 24.63 -2.7 27.1 97 -3.2 26.3
08:20 1005 29.68 834 24.63 -2.6 27.2 97 -3.1 26.4
08:25 1005 29.68 834 24.63 -2.6 27.3 97 -3 26.6
08:30 1005 29.68 834 24.63 -2.4 27.7 97 -2.8 27
08:35 1005 29.68 834 24.63 -2.2 28 97 -2.7 27.2
08:40 1005 29.68 834 24.63 -2.1 28.3 96 -2.6 27.3
08:45 1005 29.68 834 24.63 -1.9 28.5 96 -2.5 27.5
08:50 1005 29.68 835 24.66 -1.8 28.8 95 -2.6 27.4
08:55 1006 29.71 835 24.66 -1.9 28.6 94 -2.7 27.2
09:00 1006 29.71 835 24.66 -2 28.4 94 -2.8 27
09:05 1006 29.71 835 24.66 -2.1 28.2 93 -3 26.5
09:10 1006 29.71 835 24.66 -2.3 27.8 95 -3.1 26.4
09:15 1006 29.71 835 24.66 -2.4 27.7 94 -3.2 26.3
09:20 1006 29.71 835 24.66 -2.4 27.7 93 -3.4 25.9
09:25 1006 29.71 835 24.66 -2.4 27.7 93 -3.3 26.1
09:30 1006 29.71 835 24.66 -2.4 27.6 93 -3.4 25.9
09:35 1006 29.71 835 24.66 -2.6 27.3 93 -3.6 25.5
09:40 1006 29.71 835 24.66 -2.8 27 93 -3.7 25.4
09:45 1006 29.71 835 24.66 -2.8 26.9 94 -3.7 25.3
09:50 1006 29.71 835 24.66 -2.9 26.8 94 -3.7 25.4
09:55 1006 29.71 835 24.66 -2.8 27 93 -3.7 25.4
10:00 1006 29.71 835 24.66 -2.7 27.1 93 -3.7 25.3
10:05 1006 29.71 836 24.69 -2.7 27.1 92 -3.8 25.2
10:10 1006 29.71 836 24.69 -2.6 27.3 93 -3.7 25.4
10:15 1007 29.74 836 24.69 -2.5 27.6 91 -3.7 25.3
10:20 1007 29.74 836 24.69 -2.4 27.8 90 -3.7 25.3
10:25 1007 29.74 836 24.69 -2.3 27.8 89 -3.9 25.1
10:30 1007 29.74 836 24.69 -2.2 28.1 88 -3.9 25
10:35 1007 29.74 836 24.69 -2 28.4 87 -3.9 25
10:40 1007 29.74 836 24.69 -1.9 28.5 85 -4.1 24.6
10:45 1007 29.74 836 24.69 -1.9 28.7 85 -4.1 24.6
10:50 1007 29.74 836 24.69 -1.8 28.8 82 -4.4 24
10:55 1007 29.74 836 24.69 -1.7 29 81 -4.5 23.8
11:00 1007 29.74 836 24.69 -1.4 29.5 79 -4.6 23.8
11:05 1007 29.74 836 24.69 -1.4 29.5 79 -4.6 23.8
11:10 1007 29.74 836 24.69 -1.5 29.4 79 -4.6 23.7
11:15 1007 29.74 837 24.72 -1.5 29.3 79 -4.6 23.6
11:20 1007 29.74 837 24.72 -1.3 29.7 78 -4.7 23.6
11:25 1007 29.74 837 24.72 -1.3 29.7 78 -4.6 23.7
11:30 1007 29.74 837 24.72 -1.3 29.8 78 -4.7 23.6
11:35 1008 29.77 837 24.72 -1.2 29.8 77 -4.8 23.4
11:40 1008 29.77 837 24.72 -1.3 29.7 76 -5.1 22.9
11:45 1008 29.77 837 24.72 -1.1 30 76 -4.9 23.2
11:50 1008 29.77 837 24.72 -1.3 29.7 75 -5.2 22.7
11:55 1008 29.77 837 24.72 -0.9 30.3 72 -5.4 22.3
12:00 1008 29.77 837 24.72 -1.2 29.9 71 -5.8 21.5
12:05 1008 29.77 837 24.72 -1.1 30 72 -5.6 22
12:10 1008 29.77 837 24.72 -0.7 30.7 72 -5.2 22.6
12:15 1008 29.77 837 24.72 -0.9 30.4 73 -5.1 22.8
12:20 1008 29.77 837 24.72 -0.7 30.7 69 -5.7 21.7
12:25 1008 29.77 837 24.72 -0.3 31.5 64 -6.2 20.9
12:30 1008 29.77 837 24.72 -0.2 31.7 67 -5.5 22.1
12:35 1008 29.77 837 24.72 -0.3 31.4 65 -6.2 20.8
12:40 1008 29.77 837 24.72 -0.2 31.6 63 -6.4 20.5
12:45 1008 29.77 837 24.72 0.3 32.6 60 -6.6 20.1
12:50 1008 29.77 837 24.72 0.7 33.2 58 -6.7 19.9
12:55 1008 29.77 837 24.72 0.8 33.4 56 -7 19.5
13:00 1008 29.77 837 24.72 0.9 33.7 56 -6.8 19.7
13:05 1008 29.77 837 24.72 0.4 32.7 57 -7.1 19.2
13:10 1008 29.77 837 24.72 0.7 33.2 53 -7.8 18
13:15 1008 29.77 837 24.72 0.8 33.4 56 -7.1 19.2
13:20 1008 29.77 837 24.72 1.9 35.4 50 -7.6 18.3
13:25 1008 29.77 837 24.72 2.9 37.3 47 -7.4 18.7
13:30 1008 29.77 837 24.72 2.8 37.1 49 -6.8 19.8
13:35 1008 29.77 837 24.72 2.1 35.9 48 -7.7 18.2
13:40 1008 29.77 837 24.72 2.6 36.7 48 -7.4 18.7
13:45 1008 29.77 837 24.72 3.1 37.5 46 -7.5 18.5
13:50 1008 29.77 837 24.72 3.2 37.8 46 -7.4 18.6
13:55 1008 29.77 837 24.72 2.2 36 46 -8.3 17
14:00 1008 29.77 837 24.72 1.5 34.8 48 -8.3 17.1
14:05 1008 29.77 837 24.72 1.7 35 50 -7.8 18
14:10 1008 29.77 838 24.75 0.8 33.5 67 -4.7 23.5
14:15 1008 29.77 838 24.75 -0.2 31.7 72 -4.7 23.6
14:20 1008 29.77 837 24.72 -0.2 31.6 68 -5.5 22.2
14:25 1008 29.77 837 24.72 0 32.1 64 -6 21.3
14:30 1008 29.77 837 24.72 1 33.8 57 -6.7 20
14:35 1008 29.77 837 24.72 1.7 35.1 58 -5.7 21.8
14:40 1008 29.77 837 24.72 2.2 35.9 54 -6.2 20.8
14:45 1008 29.77 837 24.72 3.1 37.6 47 -7.1 19.2
14:50 1008 29.77 837 24.72 3.7 38.7 47 -6.6 20
14:55 1008 29.77 837 24.72 2.9 37.2 51 -6.3 20.6
15:00 1008 29.77 837 24.72 2.6 36.6 49 -7.1 19.3
15:05 1008 29.77 837 24.72 2.2 36 49 -7.3 18.9
15:10 1008 29.77 837 24.72 2.7 36.8 49 -7 19.4
15:15 1008 29.77 837 24.72 3.2 37.8 49 -6.4 20.4
15:20 1008 29.77 838 24.75 2.8 37.1 60 -4.2 24.4
15:25 1008 29.77 838 24.75 1 33.8 63 -5.4 22.3
15:30 1008 29.77 838 24.75 0.5 32.9 72 -4 24.8
15:35 1008 29.77 838 24.75 -0.3 31.5 71 -5 23
15:40 1008 29.77 838 24.75 -0.7 30.7 78 -4.1 24.5
15:45 1008 29.77 838 24.75 -1 30.3 78 -4.3 24.3
15:50 1008 29.77 838 24.75 -0.3 31.5 72 -4.7 23.5
15:55 1008 29.77 837 24.72 0.4 32.7 68 -4.8 23.4
16:00 1008 29.77 837 24.72 0.8 33.5 68 -4.4 24.1
16:05 1008 29.77 837 24.72 1.6 34.8 61 -5.1 22.7
16:10 1008 29.77 837 24.72 1.7 35.1 58 -5.5 22
16:15 1008 29.77 837 24.72 1.6 34.9 62 -4.9 23.2
16:20 1008 29.77 837 24.72 2.1 35.9 56 -5.7 21.8
16:25 1008 29.77 837 24.72 2.5 36.4 51 -6.7 19.9
16:30 1008 29.77 837 24.72 2.9 37.2 52 -5.9 21.3
16:35 1008 29.77 837 24.72 2.7 36.8 51 -6.5 20.4
16:40 1008 29.77 837 24.72 2.6 36.7 49 -7.1 19.2
16:45 1008 29.77 837 24.72 2.3 36.2 46 -8 17.6
16:50 1008 29.77 837 24.72 2.2 35.9 41 -9.7 14.5
16:55 1008 29.77 837 24.72 2.5 36.5 42 -9.1 15.6
17:00 1008 29.77 837 24.72 2.1 35.8 42 -9.4 15.1
17:05 1008 29.77 837 24.72 1.6 34.8 48 -8.3 17
17:10 1008 29.77 838 24.75 1.1 34 50 -8.2 17.3
17:15 1008 29.77 838 24.75 1.1 33.9 49 -8.5 16.7
17:20 1008 29.77 838 24.75 1.2 34.2 47 -8.9 15.9
17:25 1008 29.77 838 24.75 1.4 34.5 47 -8.7 16.4
17:30 1009 29.8 838 24.75 1.3 34.4 47 -8.9 16
17:35 1009 29.8 838 24.75 1.4 34.5 45 -9.4 15.2
17:40 1009 29.8 838 24.75 2.3 36.1 38 -10.8 12.5
17:45 1009 29.8 838 24.75 3.3 37.9 35 -10.7 12.8
17:50 1009 29.8 838 24.75 3 37.4 37 -10.4 13.3
17:55 1009 29.8 838 24.75 2.4 36.4 36 -11 12.2
18:00 1009 29.8 838 24.75 2.1 35.8 40 -10 14
18:05 1009 29.8 838 24.75 2.4 36.4 38 -10.6 13
18:10 1009 29.8 838 24.75 2.4 36.3 39 -10 13.9
18:15 1009 29.8 838 24.75 2.5 36.5 38 -10.3 13.4
18:20 1009 29.8 838 24.75 1.8 35.3 41 -9.9 14.1
18:25 1009 29.8 838 24.75 0.8 33.5 47 -9.3 15.2
18:30 1009 29.8 838 24.75 0.5 32.8 49 -9.1 15.6
18:35 1009 29.8 838 24.75 0.7 33.2 47 -9.3 15.3
18:40 1009 29.8 838 24.75 0.3 32.6 51 -8.7 16.4
18:45 1009 29.8 838 24.75 -0.1 31.9 55 -8.1 17.5
18:50 1009 29.8 838 24.75 -0.1 31.8 57 -7.5 18.4
18:55 1009 29.8 838 24.75 0 32 54 -8.1 17.4
19:00 1009 29.8 838 24.75 0.1 32.2 52 -8.5 16.7
19:05 1009 29.8 838 24.75 -0 32 54 -8.3 17
19:10 1009 29.8 838 24.75 0.1 32.2 51 -8.9 16
19:15 1009 29.8 838 24.75 0.1 32.1 52 -8.7 16.3
19:20 1009 29.8 838 24.75 0.1 32.1 52 -8.8 16.2
19:25 1009 29.8 838 24.75 -0 31.9 51 -9 15.8
19:30 1009 29.8 838 24.75 -0 32 49 -9.4 15
19:35 1009 29.8 838 24.75 0 32.1 46 -10.2 13.7
19:40 1009 29.8 838 24.75 -0 32 48 -9.8 14.4
19:45 1009 29.8 838 24.75 -0.1 31.8 47 -10.1 13.9
19:50 1009 29.8 838 24.75 -0.3 31.5 46 -10.4 13.2
19:55 1009 29.8 838 24.75 -0.4 31.3 46 -10.6 12.9
20:00 1009 29.8 838 24.75 -0.4 31.3 47 -10.4 13.2
20:05 1009 29.8 838 24.75 -0.4 31.3 47 -10.3 13.5
20:10 1009 29.8 838 24.75 -0.4 31.3 48 -10.2 13.6
20:15 1009 29.8 838 24.75 -0.5 31.1 49 -10 14
20:20 1009 29.8 838 24.75 -0.6 30.9 48 -10.4 13.2
20:25 1009 29.8 838 24.75 -0.5 31.1 47 -10.5 13.1
20:30 1009 29.8 838 24.75 -0.4 31.2 45 -10.8 12.5
20:35 1009 29.8 839 24.78 -0.4 31.3 46 -10.8 12.5
20:40 1009 29.8 839 24.78 -0.6 30.9 46 -10.7 12.7
20:45 1009 29.8 839 24.78 -0.8 30.6 48 -10.6 12.9
20:50 1009 29.8 839 24.78 -0.9 30.4 48 -10.7 12.7
20:55 1009 29.8 839 24.78 -0.8 30.6 47 -10.7 12.7
21:00 1010 29.83 839 24.78 -0.8 30.6 48 -10.6 13
21:05 1010 29.83 839 24.78 -0.8 30.5 47 -10.7 12.7
21:10 1010 29.83 839 24.78 -0.9 30.4 47 -10.7 12.7
21:15 1010 29.83 839 24.78 -0.9 30.4 48 -10.7 12.8
21:20 1010 29.83 839 24.78 -1.1 30 49 -10.6 13
21:25 1010 29.83 839 24.78 -1.3 29.6 47 -11.2 11.8
21:30 1010 29.83 839 24.78 -1.2 29.8 46 -11.3 11.6
21:35 1010 29.83 839 24.78 -1.2 29.9 46 -11.3 11.7
21:40 1010 29.83 839 24.78 -1.1 29.9 46 -11.4 11.5
21:45 1010 29.83 839 24.78 -1.1 30 45 -11.5 11.3
21:50 1010 29.83 839 24.78 -1.1 29.9 47 -11.1 12.1
21:55 1010 29.83 839 24.78 -1.3 29.7 46 -11.4 11.5
22:00 1010 29.83 839 24.78 -1.5 29.2 51 -10.5 13.2
22:05 1010 29.83 839 24.78 -2.1 28.2 52 -10.6 12.9
22:10 1010 29.83 839 24.78 -2.4 27.7 52 -10.9 12.4
22:15 1010 29.83 839 24.78 -2.3 27.8 53 -10.5 13
22:20 1010 29.83 839 24.78 -2.3 27.9 53 -10.5 13
22:25 1010 29.83 839 24.78 -2.3 27.9 52 -10.8 12.5
22:30 1010 29.83 839 24.78 -2.4 27.7 52 -10.9 12.4
22:35 1010 29.83 839 24.78 -2.1 28.3 52 -10.8 12.6
22:40 1010 29.83 839 24.78 -1.9 28.6 51 -10.6 12.9
22:45 1010 29.83 839 24.78 -1.8 28.8 50 -10.8 12.5
22:50 1010 29.83 839 24.78 -1.9 28.6 50 -10.9 12.4
22:55 1010 29.83 839 24.78 -2.1 28.3 51 -10.8 12.6
23:00 1010 29.83 839 24.78 -2.2 28.1 53 -10.6 13
23:05 1010 29.83 839 24.78 -2.3 27.8 53 -10.7 12.8
23:10 1010 29.83 839 24.78 -2.4 27.7 54 -10.4 13.3
23:15 1010 29.83 839 24.78 -2.7 27.2 53 -10.9 12.4
23:20 1010 29.83 839 24.78 -2.7 27.1 55 -10.6 12.9
23:25 1010 29.83 839 24.78 -2.8 27 57 -10.2 13.6
23:30 1010 29.83 839 24.78 -3.3 26 60 -10.1 13.8
23:35 1010 29.83 839 24.78 -3.3 26.1 58 -10.4 13.2
23:40 1010 29.83 839 24.78 -3.2 26.2 58 -10.3 13.5
23:45 1010 29.83 839 24.78 -3.1 26.5 57 -10.5 13.2
23:50 1010 29.83 839 24.78 -3.4 25.9 59 -10.3 13.5
23:55 1010 29.83 839 24.78 -3.5 25.8 58 -10.6 13
24:00 1010 29.83 839 24.78 -3.5 25.8 58 -10.7 12.8